createdAt,value
2019-03-02T00:01:52.954Z,97606.70
2019-03-02T00:03:54.549Z,97609.69
2019-03-02T00:05:57.094Z,97616.74
2019-03-02T00:07:57.783Z,97620.25
2019-03-02T00:09:59.383Z,97625.33
2019-03-02T00:12:01.189Z,97632.13
2019-03-02T00:14:02.782Z,97629.25
2019-03-02T00:16:07.508Z,97626.89
2019-03-02T00:18:06.027Z,97628.05
2019-03-02T00:20:07.640Z,97626.47
2019-03-02T00:22:09.299Z,97626.69
2019-03-02T00:24:10.914Z,97623.95
2019-03-02T00:26:12.519Z,97626.28
2019-03-02T00:28:14.141Z,97617.00
2019-03-02T00:30:17.778Z,97620.70
2019-03-02T00:32:17.384Z,97620.55
2019-03-02T00:34:19.019Z,97618.14
2019-03-02T00:36:20.653Z,97616.39
2019-03-02T00:38:22.270Z,97619.38
2019-03-02T00:40:23.864Z,97627.99
2019-03-02T00:42:25.444Z,97627.30
2019-03-02T00:44:27.084Z,97625.48
2019-03-02T00:46:28.697Z,97624.96
2019-03-02T00:48:30.358Z,97621.32
2019-03-02T00:50:33.668Z,97627.70
2019-03-02T00:52:33.601Z,97625.25
2019-03-02T00:54:35.226Z,97630.20
2019-03-02T00:56:39.893Z,97617.52
2019-03-02T00:58:38.490Z,97617.76
2019-03-02T01:00:40.086Z,97623.11
2019-03-02T01:02:41.677Z,97626.33
2019-03-02T01:04:43.292Z,97626.03
2019-03-02T01:06:48.362Z,97627.05
2019-03-02T01:08:46.541Z,97641.71
2019-03-02T01:10:48.143Z,97637.98
2019-03-02T01:12:49.759Z,97639.84
2019-03-02T01:14:51.397Z,97638.24
2019-03-02T01:16:55.220Z,97651.48
2019-03-02T01:18:54.649Z,97633.16
2019-03-02T01:20:56.296Z,97635.84
2019-03-02T01:22:57.904Z,97635.94
2019-03-02T01:24:59.551Z,97637.66
2019-03-02T01:27:01.269Z,97640.71
2019-03-02T01:29:02.860Z,97636.89
2019-03-02T01:31:05.133Z,97636.83
2019-03-02T01:33:06.114Z,97635.55
2019-03-02T01:35:07.696Z,97636.39
2019-03-02T01:37:09.340Z,97635.95
2019-03-02T01:39:11.003Z,97628.78
2019-03-02T01:41:14.007Z,97633.83
2019-03-02T01:43:14.316Z,97635.50
2019-03-02T01:45:15.914Z,97641.09
2019-03-02T01:47:17.542Z,97637.77
2019-03-02T01:49:19.143Z,97635.77
2019-03-02T01:51:23.093Z,97639.73
2019-03-02T01:53:22.434Z,97636.84
2019-03-02T01:55:24.044Z,97634.80
2019-03-02T01:57:25.660Z,97634.38
2019-03-02T01:59:27.459Z,97632.27
2019-03-02T02:01:29.100Z,97627.98
2019-03-02T02:03:30.697Z,97636.55
2019-03-02T02:05:33.111Z,97633.56
2019-03-02T02:07:33.952Z,97638.32
2019-03-02T02:09:40.175Z,97635.61
2019-03-02T02:11:37.240Z,97641.03
2019-03-02T02:13:42.561Z,97635.47
2019-03-02T02:15:40.540Z,97636.66
2019-03-02T02:17:42.151Z,97636.66
2019-03-02T02:19:43.752Z,97634.14
2019-03-02T02:21:45.386Z,97634.14
2019-03-02T02:23:49.769Z,97633.73
2019-03-02T02:25:48.648Z,97627.41
2019-03-02T02:27:50.264Z,97624.35
2019-03-02T02:29:51.866Z,97618.46
2019-03-02T02:31:53.526Z,97614.39
2019-03-02T02:33:55.120Z,97620.86
2019-03-02T02:35:56.723Z,97614.52
2019-03-02T02:37:58.350Z,97608.17
2019-03-02T02:39:59.958Z,97609.51
2019-03-02T02:42:05.245Z,97612.48
2019-03-02T02:44:03.253Z,97613.75
2019-03-02T02:46:04.868Z,97614.97
2019-03-02T02:48:06.476Z,97604.73
2019-03-02T02:50:08.092Z,97603.03
2019-03-02T02:52:09.749Z,97599.98
2019-03-02T02:54:11.476Z,97608.47
2019-03-02T02:56:14.370Z,97598.17
2019-03-02T02:58:17.468Z,97595.68
2019-03-02T03:00:17.573Z,97601.09
2019-03-02T03:02:18.050Z,97606.09
2019-03-02T03:04:19.647Z,97595.88
2019-03-02T03:06:21.289Z,97597.55
2019-03-02T03:08:22.899Z,97559.07
2019-03-02T03:10:33.596Z,97596.73
2019-03-02T03:12:35.194Z,97593.73
2019-03-02T03:14:36.791Z,97597.98
2019-03-02T03:16:38.408Z,97598.39
2019-03-02T03:18:40.016Z,97599.23
2019-03-02T03:20:47.678Z,97602.21
2019-03-02T03:22:46.187Z,97604.38
2019-03-02T03:24:44.913Z,97598.94
2019-03-02T03:26:46.681Z,97597.76
2019-03-02T03:28:48.278Z,97599.05
2019-03-02T03:30:49.910Z,97599.00
2019-03-02T03:32:56.157Z,97599.67
2019-03-02T03:34:53.184Z,97597.44
2019-03-02T03:36:54.790Z,97599.27
2019-03-02T03:38:56.441Z,97591.77
2019-03-02T03:41:00.294Z,97591.86
2019-03-02T03:43:03.344Z,97590.68
2019-03-02T03:45:04.391Z,97595.45
2019-03-02T03:47:03.173Z,97587.89
2019-03-02T03:49:04.802Z,97591.77
2019-03-02T03:51:06.411Z,97591.70
2019-03-02T03:53:08.014Z,97587.89
2019-03-02T03:55:09.614Z,97591.36
2019-03-02T03:57:11.221Z,97585.91
2019-03-02T03:59:14.173Z,97588.90
2019-03-02T04:01:17.749Z,97592.22
2019-03-02T04:03:16.118Z,97597.75
2019-03-02T04:05:17.714Z,97604.16
2019-03-02T04:07:19.314Z,97602.10
2019-03-02T04:09:20.943Z,97601.25
2019-03-02T04:11:22.548Z,97602.09
2019-03-02T04:13:24.164Z,97608.06
2019-03-02T04:15:25.773Z,97602.10
2019-03-02T04:17:27.371Z,97608.07
2019-03-02T04:19:29.604Z,97618.11
2019-03-02T04:21:30.628Z,97611.20
2019-03-02T04:23:32.223Z,97611.62
2019-03-02T04:25:33.860Z,97607.66
2019-03-02T04:27:35.468Z,97602.09
2019-03-02T04:29:37.069Z,97605.41
2019-03-02T04:31:38.744Z,97604.08
2019-03-02T04:33:43.356Z,97604.50
2019-03-02T04:35:42.008Z,97603.18
2019-03-02T04:37:43.596Z,97602.27
2019-03-02T04:39:46.456Z,97607.80
2019-03-02T04:41:46.876Z,97604.41
2019-03-02T04:43:50.706Z,97598.95
2019-03-02T04:45:50.134Z,97609.16
2019-03-02T04:47:51.738Z,97598.36
2019-03-02T04:49:53.349Z,97600.41
2019-03-02T04:51:54.981Z,97602.96
2019-03-02T04:53:58.113Z,97603.39
2019-03-02T04:55:58.249Z,97601.31
2019-03-02T04:57:59.841Z,97592.81
2019-03-02T05:00:01.443Z,97599.63
2019-03-02T05:02:03.037Z,97605.16
2019-03-02T05:04:04.628Z,97595.73
2019-03-02T05:06:06.252Z,97601.78
2019-03-02T05:08:07.850Z,97595.90
2019-03-02T05:10:09.456Z,97594.27
2019-03-02T05:12:11.626Z,97603.30
2019-03-02T05:14:12.737Z,97601.60
2019-03-02T05:16:14.366Z,97599.13
2019-03-02T05:18:18.132Z,97604.25
2019-03-02T05:20:17.655Z,97598.69
2019-03-02T05:22:19.717Z,97603.39
2019-03-02T05:24:20.954Z,97597.50
2019-03-02T05:26:22.551Z,97601.34
2019-03-02T05:28:24.173Z,97605.23
2019-03-02T05:30:26.698Z,97606.17
2019-03-02T05:32:27.436Z,97607.47
2019-03-02T05:34:29.066Z,97610.03
2019-03-02T05:36:30.680Z,97612.59
2019-03-02T05:38:32.334Z,97601.61
2019-03-02T05:40:33.930Z,97604.14
2019-03-02T05:42:35.531Z,97612.66
2019-03-02T05:44:39.135Z,97609.67
2019-03-02T05:46:38.812Z,97612.67
2019-03-02T05:48:42.956Z,97613.94
2019-03-02T05:50:42.062Z,97614.39
2019-03-02T05:52:43.671Z,97616.15
2019-03-02T05:54:45.299Z,97606.77
2019-03-02T05:56:46.908Z,97608.91
2019-03-02T05:58:51.150Z,97613.58
2019-03-02T06:00:50.151Z,97614.87
2019-03-02T06:02:51.745Z,97608.50
2019-03-02T06:04:53.767Z,97611.45
2019-03-02T06:06:55.468Z,97615.29
2019-03-02T06:08:56.690Z,97614.00
2019-03-02T06:11:01.893Z,97618.20
2019-03-02T06:12:59.912Z,97612.93
2019-03-02T06:15:03.995Z,97611.92
2019-03-02T06:17:03.191Z,97624.70
2019-03-02T06:19:04.786Z,97617.86
2019-03-02T06:21:07.762Z,97620.49
2019-03-02T06:23:08.076Z,97624.34
2019-03-02T06:25:19.371Z,97623.03
2019-03-02T06:27:11.770Z,97621.35
2019-03-02T06:29:13.068Z,97628.67
2019-03-02T06:31:15.826Z,97627.00
2019-03-02T06:33:16.368Z,97638.48
2019-03-02T06:35:17.955Z,97631.23
2019-03-02T06:37:19.988Z,97631.50
2019-03-02T06:39:21.268Z,97635.81
2019-03-02T06:41:22.880Z,97632.87
2019-03-02T06:43:24.468Z,97632.87
2019-03-02T06:45:26.076Z,97630.90
2019-03-02T06:47:30.007Z,97633.72
2019-03-02T06:49:29.332Z,97642.31
2019-03-02T06:51:30.931Z,97631.69
2019-03-02T06:53:34.020Z,97638.14
2019-03-02T06:55:34.188Z,97643.26
2019-03-02T06:57:35.786Z,97641.15
2019-03-02T06:59:39.375Z,97640.38
2019-03-02T07:01:39.071Z,97628.45
2019-03-02T07:03:42.863Z,97637.87
2019-03-02T07:05:42.313Z,97638.37
2019-03-02T07:07:43.895Z,97638.91
2019-03-02T07:09:46.161Z,97647.58
2019-03-02T07:11:47.180Z,97648.94
2019-03-02T07:13:48.825Z,97644.45
2019-03-02T07:15:50.436Z,97652.70
2019-03-02T07:17:57.756Z,97649.42
2019-03-02T07:19:59.360Z,97657.60
2019-03-02T07:22:00.994Z,97652.49
2019-03-02T07:24:02.608Z,97655.50
2019-03-02T07:26:04.206Z,97653.95
2019-03-02T07:28:07.251Z,97653.94
2019-03-02T07:30:07.517Z,97659.06
2019-03-02T07:32:09.136Z,97665.42
2019-03-02T07:34:10.761Z,97663.58
2019-03-02T07:36:12.355Z,97669.86
2019-03-02T07:38:16.910Z,97670.63
2019-03-02T07:40:15.668Z,97666.67
2019-03-02T07:42:17.267Z,97667.76
2019-03-02T07:44:21.970Z,97662.05
2019-03-02T07:46:20.557Z,97666.75
2019-03-02T07:48:22.200Z,97665.88
2019-03-02T07:50:25.932Z,97658.84
2019-03-02T07:52:25.435Z,97664.64
2019-03-02T07:54:27.057Z,97668.41
2019-03-02T07:56:29.565Z,97664.28
2019-03-02T07:58:30.312Z,97658.82
2019-03-02T08:00:31.923Z,97664.80
2019-03-02T08:02:33.517Z,97665.23
2019-03-02T08:04:38.403Z,97660.82
2019-03-02T08:06:36.806Z,97661.25
2019-03-02T08:08:38.415Z,97659.16
2019-03-02T08:10:40.027Z,97655.77
2019-03-02T08:12:41.628Z,97657.84
2019-03-02T08:14:44.496Z,97664.23
2019-03-02T08:16:44.910Z,97656.98
2019-03-02T08:18:46.524Z,97659.11
2019-03-02T08:20:48.140Z,97658.35
2019-03-02T08:22:49.740Z,97661.83
2019-03-02T08:24:51.392Z,97655.51
2019-03-02T08:26:53.021Z,97661.39
2019-03-02T08:28:54.622Z,97662.23
2019-03-02T08:30:56.245Z,97652.89
2019-03-02T08:32:59.150Z,97654.07
2019-03-02T08:34:59.494Z,97647.40
2019-03-02T08:37:01.126Z,97644.29
2019-03-02T08:39:02.763Z,97649.73
2019-03-02T08:41:04.351Z,97650.52
2019-03-02T08:43:05.975Z,97652.30
2019-03-02T08:45:07.610Z,97661.23
2019-03-02T08:47:09.847Z,97653.16
2019-03-02T08:49:10.879Z,97655.63
2019-03-02T08:51:12.518Z,97649.29
2019-03-02T08:53:14.122Z,97659.47
2019-03-02T08:55:15.758Z,97658.66
2019-03-02T08:57:19.592Z,97666.77
2019-03-02T08:59:19.076Z,97656.98
2019-03-02T09:01:20.688Z,97668.11
2019-03-02T09:03:22.288Z,97667.61
2019-03-02T09:05:42.948Z,97656.46
2019-03-02T09:07:25.567Z,97654.35
2019-03-02T09:09:27.176Z,97653.91
2019-03-02T09:11:28.787Z,97651.80
2019-03-02T09:13:30.933Z,97652.14
2019-03-02T09:15:32.061Z,97647.03
2019-03-02T09:17:33.676Z,97646.66
2019-03-02T09:19:35.303Z,97641.89
2019-03-02T09:21:36.888Z,97643.59
2019-03-02T09:23:38.528Z,97652.02
2019-03-02T09:25:40.126Z,97655.86
2019-03-02T09:27:41.722Z,97655.34
2019-03-02T09:29:43.346Z,97650.70
2019-03-02T09:31:46.792Z,97655.80
2019-03-02T09:33:46.680Z,97653.73
2019-03-02T09:35:49.075Z,97662.58
2019-03-02T09:37:49.946Z,97659.55
2019-03-02T09:39:51.550Z,97661.17
2019-03-02T09:41:53.160Z,97652.20
2019-03-02T09:44:00.026Z,97653.09
2019-03-02T09:45:56.437Z,97650.09
2019-03-02T09:47:58.034Z,97659.88
2019-03-02T09:49:59.632Z,97656.02
2019-03-02T09:52:01.225Z,97661.91
2019-03-02T09:54:02.866Z,97664.41
2019-03-02T09:56:04.447Z,97660.09
2019-03-02T09:58:06.469Z,97643.67
2019-03-02T10:00:07.692Z,97656.01
2019-03-02T10:02:10.588Z,97665.38
2019-03-02T10:04:10.945Z,97665.78
2019-03-02T10:06:12.574Z,97667.14
2019-03-02T10:08:14.241Z,97661.19
2019-03-02T10:10:15.862Z,97662.91
2019-03-02T10:12:17.476Z,97667.23
2019-03-02T10:14:20.783Z,97663.40
2019-03-02T10:16:20.773Z,97665.95
2019-03-02T10:18:22.369Z,97664.66
2019-03-02T10:20:24.028Z,97668.92
2019-03-02T10:22:25.622Z,97657.36
2019-03-02T10:24:27.230Z,97659.64
2019-03-02T10:26:28.868Z,97660.48
2019-03-02T10:28:34.111Z,97666.43
2019-03-02T10:30:32.155Z,97670.45
2019-03-02T10:32:33.757Z,97674.25
2019-03-02T10:34:38.415Z,97672.86
2019-03-02T10:36:37.049Z,97673.02
2019-03-02T10:38:38.659Z,97673.59
2019-03-02T10:40:41.701Z,97669.89
2019-03-02T10:42:41.931Z,97676.52
2019-03-02T10:44:43.537Z,97671.45
2019-03-02T10:46:45.144Z,97671.95
2019-03-02T10:48:46.742Z,97690.76
2019-03-02T10:50:48.338Z,97659.42
2019-03-02T10:52:50.061Z,97668.88
2019-03-02T10:54:51.631Z,97670.09
2019-03-02T10:56:53.235Z,97667.55
2019-03-02T10:58:54.871Z,97668.13
2019-03-02T11:00:56.480Z,97660.63
2019-03-02T11:02:58.089Z,97660.24
2019-03-02T11:04:59.686Z,97661.30
2019-03-02T11:07:16.043Z,97656.31
2019-03-02T11:09:32.849Z,97661.65
2019-03-02T11:11:48.941Z,97648.75
2019-03-02T11:13:56.451Z,97652.59
2019-03-02T11:15:57.802Z,97647.63
2019-03-02T11:18:05.215Z,97657.32
2019-03-02T11:20:24.333Z,97659.08
2019-03-02T11:22:39.066Z,97657.39
2019-03-02T11:24:57.498Z,97656.60
2019-03-02T11:27:09.640Z,97651.83
2019-03-02T11:29:10.717Z,97643.34
2019-03-02T11:31:18.455Z,97638.78
2019-03-02T11:33:20.054Z,97638.53
2019-03-02T11:35:32.440Z,97637.08
2019-03-02T11:37:36.677Z,97627.20
2019-03-02T11:39:54.114Z,97627.19
2019-03-02T11:42:13.939Z,97628.09
2019-03-02T11:44:28.217Z,97636.98
2019-03-02T11:46:29.811Z,97629.92
2019-03-02T11:48:36.202Z,97639.70
2019-03-02T11:50:40.411Z,97633.45
2019-03-02T11:52:44.650Z,97628.10
2019-03-02T11:54:51.756Z,97632.90
2019-03-02T11:56:53.353Z,97636.48
2019-03-02T11:58:58.337Z,97638.34
2019-03-02T12:01:14.809Z,97638.63
2019-03-02T12:03:22.067Z,97637.34
2019-03-02T12:05:28.615Z,97641.13
2019-03-02T12:07:32.900Z,97640.87
2019-03-02T12:09:38.333Z,97636.27
2019-03-02T12:11:57.563Z,97634.05
2019-03-02T12:14:17.052Z,97629.17
2019-03-02T12:16:22.130Z,97636.48
2019-03-02T12:18:23.460Z,97629.92
2019-03-02T12:20:25.530Z,97629.24
2019-03-02T12:22:34.139Z,97626.89
2019-03-02T12:24:54.798Z,97623.58
2019-03-02T12:26:58.865Z,97622.77
2019-03-02T12:29:09.205Z,97637.94
2019-03-02T12:31:14.433Z,97633.98
2019-03-02T12:33:16.933Z,97624.78
2019-03-02T12:35:18.144Z,97628.71
2019-03-02T12:37:32.864Z,97626.70
2019-03-02T12:39:32.144Z,97623.50
2019-03-02T12:41:52.658Z,97626.80
2019-03-02T12:44:05.002Z,97625.80
2019-03-02T12:46:09.456Z,97619.86
2019-03-02T12:48:23.636Z,97621.56
2019-03-02T12:50:31.089Z,97615.40
2019-03-02T12:52:52.762Z,97617.16
2019-03-02T12:54:55.991Z,97605.56
2019-03-02T12:57:12.524Z,97605.30
2019-03-02T12:59:15.964Z,97605.14
2019-03-02T13:01:18.533Z,97611.30
2019-03-02T13:03:34.455Z,97592.91
2019-03-02T13:05:38.120Z,97612.39
2019-03-02T13:07:47.056Z,97614.58
2019-03-02T13:09:48.741Z,97604.80
2019-03-02T13:11:54.964Z,97610.02
2019-03-02T13:13:58.402Z,97606.63
2019-03-02T13:16:09.922Z,97608.34
2019-03-02T13:18:17.263Z,97607.69
2019-03-02T13:20:22.498Z,97609.48
2019-03-02T13:22:26.133Z,97604.45
2019-03-02T13:24:31.466Z,97600.72
2019-03-02T13:26:33.908Z,97607.13
2019-03-02T13:28:36.999Z,97604.30
2019-03-02T13:30:37.800Z,97606.02
2019-03-02T13:32:56.046Z,97595.69
2019-03-02T13:35:12.430Z,97593.36
2019-03-02T13:37:20.322Z,97595.30
2019-03-02T13:39:35.194Z,97572.45
2019-03-02T13:41:37.614Z,97594.71
2019-03-02T13:43:39.206Z,97563.47
2019-03-02T13:45:43.343Z,97587.16
2019-03-02T13:47:48.752Z,97595.14
2019-03-02T13:49:49.246Z,97592.33
2019-03-02T13:51:56.660Z,97593.27
2019-03-02T13:54:02.845Z,97586.95
2019-03-02T13:56:06.713Z,97589.38
2019-03-02T13:58:23.327Z,97587.42
2019-03-02T14:00:47.749Z,97587.78
2019-03-02T14:02:47.099Z,97577.40
2019-03-02T14:04:52.505Z,97543.91
2019-03-02T14:06:58.002Z,97578.39
2019-03-02T14:09:20.171Z,97583.98
2019-03-02T14:11:36.462Z,97574.42
2019-03-02T14:13:37.488Z,97577.65
2019-03-02T14:15:55.286Z,97581.25
2019-03-02T14:18:07.187Z,97576.54
2019-03-02T14:20:20.722Z,97576.13
2019-03-02T14:22:22.234Z,97575.41
2019-03-02T14:24:24.837Z,97572.81
2019-03-02T14:26:42.154Z,97570.92
2019-03-02T14:28:43.736Z,97554.31
2019-03-02T14:30:52.568Z,97563.76
2019-03-02T14:32:53.523Z,97565.96
2019-03-02T14:34:56.065Z,97570.24
2019-03-02T14:37:03.289Z,97566.84
2019-03-02T14:39:07.432Z,97568.23
2019-03-02T14:41:18.972Z,97571.01
2019-03-02T14:43:26.266Z,97567.94
2019-03-02T14:45:30.803Z,97570.13
2019-03-02T14:47:33.042Z,97571.09
2019-03-02T14:49:49.925Z,97566.73
2019-03-02T14:51:57.470Z,97549.74
2019-03-02T14:54:04.676Z,97562.98
2019-03-02T14:56:23.917Z,97561.30
2019-03-02T14:58:34.127Z,97556.43
2019-03-02T15:00:35.384Z,97558.30
2019-03-02T15:02:52.490Z,97559.88
2019-03-02T15:04:56.487Z,97556.62
2019-03-02T15:07:02.022Z,97554.27
2019-03-02T15:09:08.763Z,97550.84
2019-03-02T15:11:10.752Z,97551.94
2019-03-02T15:13:12.354Z,97548.72
2019-03-02T15:15:20.347Z,97551.19
2019-03-02T15:17:21.279Z,97551.31
2019-03-02T15:19:27.196Z,97549.45
2019-03-02T15:21:44.365Z,97546.64
2019-03-02T15:23:44.693Z,97548.86
2019-03-02T15:26:02.161Z,97540.86
2019-03-02T15:28:06.721Z,97544.71
2019-03-02T15:30:26.518Z,97548.89
2019-03-02T15:32:42.690Z,97547.80
2019-03-02T15:34:49.640Z,97554.05
2019-03-02T15:37:00.845Z,97548.28
2019-03-02T15:39:05.252Z,97543.49
2019-03-02T15:41:09.335Z,97545.01
2019-03-02T15:43:15.212Z,97550.52
2019-03-02T15:45:32.599Z,97550.30
2019-03-02T15:47:50.744Z,97555.40
2019-03-02T15:49:56.720Z,97550.55
2019-03-02T15:51:59.456Z,97546.63
2019-03-02T15:54:05.615Z,97548.94
2019-03-02T15:56:07.686Z,97548.30
2019-03-02T15:58:14.274Z,97548.76
2019-03-02T16:00:16.863Z,97547.68
2019-03-02T16:02:19.388Z,97548.86
2019-03-02T16:04:24.746Z,97548.66
2019-03-02T16:06:27.955Z,97551.07
2019-03-02T16:08:28.862Z,97546.94
2019-03-02T16:10:32.298Z,97543.11
2019-03-02T16:12:40.988Z,97546.10
2019-03-02T16:14:56.367Z,97534.66
2019-03-02T16:17:03.598Z,97542.03
2019-03-02T16:19:06.087Z,97528.89
2019-03-02T16:21:05.732Z,97545.13
2019-03-02T16:23:11.085Z,97545.91
2019-03-02T16:25:19.386Z,97540.00
2019-03-02T16:27:35.947Z,97541.82
2019-03-02T16:29:43.313Z,97545.59
2019-03-02T16:31:50.008Z,97545.61
2019-03-02T16:33:52.477Z,97546.80
2019-03-02T16:36:02.549Z,97542.62
2019-03-02T16:38:05.349Z,97537.23
2019-03-02T16:40:08.850Z,97504.41
2019-03-02T16:42:20.372Z,97542.59
2019-03-02T16:44:31.937Z,97543.38
2019-03-02T16:46:44.200Z,97543.34
2019-03-02T16:49:01.007Z,97543.53
2019-03-02T16:51:04.347Z,97537.98
2019-03-02T16:53:09.469Z,97549.84
2019-03-02T16:55:28.931Z,97544.48
2019-03-02T16:57:34.590Z,97546.59
2019-03-02T16:59:36.675Z,97551.36
2019-03-02T17:01:43.907Z,97551.82
2019-03-02T17:03:48.013Z,97542.51
2019-03-02T17:05:49.627Z,97547.22
2019-03-02T17:07:58.701Z,97545.27
2019-03-02T17:09:57.454Z,97543.34
2019-03-02T17:12:15.923Z,97537.16
2019-03-02T17:14:18.584Z,97550.77
2019-03-02T17:16:25.750Z,97516.28
2019-03-02T17:18:30.875Z,97555.83
2019-03-02T17:20:35.014Z,97553.66
2019-03-02T17:22:53.426Z,97557.64
2019-03-02T17:24:55.016Z,97561.20
2019-03-02T17:27:02.328Z,97558.65
2019-03-02T17:29:08.154Z,97529.14
2019-03-02T17:31:13.821Z,97563.84
2019-03-02T17:33:20.248Z,97561.98
2019-03-02T17:35:25.576Z,97557.56
2019-03-02T17:37:29.846Z,97556.23
2019-03-02T17:39:39.208Z,97554.25
2019-03-02T17:41:40.827Z,97553.39
2019-03-02T17:43:46.788Z,97541.01
2019-03-02T17:45:45.542Z,97545.46
2019-03-02T17:47:52.816Z,97548.52
2019-03-02T17:49:57.180Z,97543.17
2019-03-02T17:52:04.392Z,97547.35
2019-03-02T17:54:20.869Z,97547.28
2019-03-02T17:56:25.016Z,97547.27
2019-03-02T17:58:28.045Z,97547.25
2019-03-02T18:00:28.281Z,97540.67
2019-03-02T18:02:31.550Z,97540.99
2019-03-02T18:04:35.378Z,97543.97
2019-03-02T18:06:38.284Z,97544.31
2019-03-02T18:08:44.974Z,97542.48
2019-03-02T18:10:55.159Z,97549.23
2019-03-02T18:13:06.106Z,97545.23
2019-03-02T18:15:09.803Z,97539.97
2019-03-02T18:17:11.430Z,97557.47
2019-03-02T18:19:13.016Z,97541.61
2019-03-02T18:21:14.610Z,97549.28
2019-03-02T18:23:18.929Z,97547.05
2019-03-02T18:25:17.873Z,97547.93
2019-03-02T18:27:20.090Z,97552.65
2019-03-02T18:29:21.140Z,97550.16
2019-03-02T18:31:22.774Z,97546.80
2019-03-02T18:33:25.423Z,97550.32
2019-03-02T18:35:27.007Z,97548.47
2019-03-02T18:37:30.516Z,97551.86
2019-03-02T18:39:30.312Z,97549.27
2019-03-02T18:41:31.968Z,97554.36
2019-03-02T18:43:33.579Z,97551.73
2019-03-02T18:45:35.800Z,97556.08
2019-03-02T18:47:36.884Z,97549.98
2019-03-02T18:49:39.297Z,97557.89
2019-03-02T18:52:00.731Z,97550.28
2019-03-02T18:54:11.927Z,97550.27
2019-03-02T18:56:09.572Z,97550.15
2019-03-02T18:58:11.254Z,97554.58
2019-03-02T19:00:16.142Z,97545.56
2019-03-02T19:02:14.525Z,97537.59
2019-03-02T19:04:16.108Z,97542.35
2019-03-02T19:06:17.707Z,97544.76
2019-03-02T19:08:19.292Z,97549.42
2019-03-02T19:10:20.900Z,97543.25
2019-03-02T19:12:22.539Z,97544.27
2019-03-02T19:14:24.159Z,97539.98
2019-03-02T19:16:25.796Z,97541.48
2019-03-02T19:18:27.437Z,97536.28
2019-03-02T19:20:29.038Z,97539.69
2019-03-02T19:22:30.680Z,97536.66
2019-03-02T19:24:32.293Z,97532.04
2019-03-02T19:26:33.894Z,97531.36
2019-03-02T19:28:35.548Z,97523.36
2019-03-02T19:30:37.227Z,97520.17
2019-03-02T19:32:38.871Z,97526.14
2019-03-02T19:34:40.465Z,97532.34
2019-03-02T19:36:42.066Z,97499.10
2019-03-02T19:38:43.693Z,97538.25
2019-03-02T19:40:45.304Z,97528.63
2019-03-02T19:42:46.935Z,97526.73
2019-03-02T19:44:48.520Z,97532.15
2019-03-02T19:46:50.167Z,97535.53
2019-03-02T19:48:51.765Z,97533.66
2019-03-02T19:50:53.362Z,97537.14
2019-03-02T19:52:55.096Z,97524.67
2019-03-02T19:54:56.744Z,97533.38
2019-03-02T19:56:58.338Z,97535.20
2019-03-02T19:58:59.935Z,97534.42
2019-03-02T20:01:01.534Z,97530.71
2019-03-02T20:03:03.131Z,97533.44
2019-03-02T20:05:04.793Z,97533.06
2019-03-02T20:07:06.420Z,97532.83
2019-03-02T20:09:08.073Z,97525.30
2019-03-02T20:11:09.735Z,97527.45
2019-03-02T20:13:11.358Z,97529.57
2019-03-02T20:15:12.972Z,97490.34
2019-03-02T20:17:14.614Z,97525.70
2019-03-02T20:19:16.197Z,97535.17
2019-03-02T20:21:17.924Z,97528.66
2019-03-02T20:23:19.532Z,97523.59
2019-03-02T20:25:21.130Z,97525.34
2019-03-02T20:27:22.768Z,97525.95
2019-03-02T20:29:24.361Z,97522.33
2019-03-02T20:31:26.000Z,97523.58
2019-03-02T20:33:27.602Z,97500.42
2019-03-02T20:35:29.211Z,97500.36
2019-03-02T20:37:30.824Z,97494.67
2019-03-02T20:39:32.430Z,97499.42
2019-03-02T20:41:34.038Z,97504.16
2019-03-02T20:43:35.659Z,97500.73
2019-03-02T20:45:37.258Z,97499.41
2019-03-02T20:47:38.915Z,97509.45
2019-03-02T20:49:40.633Z,97502.84
2019-03-02T20:51:42.274Z,97502.37
2019-03-02T20:53:43.875Z,97495.42
2019-03-02T20:55:45.473Z,97506.88
2019-03-02T20:57:47.104Z,97501.21
2019-03-02T20:59:48.697Z,97493.50
2019-03-02T21:01:50.296Z,97493.67
2019-03-02T21:03:51.898Z,97498.38
2019-03-02T21:05:53.499Z,97474.38
2019-03-02T21:07:55.094Z,97494.68
2019-03-02T21:09:56.720Z,97491.70
2019-03-02T21:11:58.315Z,97496.21
2019-03-02T21:13:59.914Z,97496.25
2019-03-02T21:16:01.522Z,97496.66
2019-03-02T21:18:03.253Z,97498.28
2019-03-02T21:20:04.900Z,97496.47
2019-03-02T21:22:06.516Z,97494.89
2019-03-02T21:24:08.114Z,97500.33
2019-03-02T21:26:09.767Z,97493.66
2019-03-02T21:28:11.369Z,97495.80
2019-03-02T21:30:12.970Z,97494.41
2019-03-02T21:32:14.625Z,97490.55
2019-03-02T21:34:16.222Z,97485.55
2019-03-02T21:36:17.827Z,97481.97
2019-03-02T21:38:19.452Z,97486.22
2019-03-02T21:40:21.061Z,97484.03
2019-03-02T21:42:22.698Z,97475.00
2019-03-02T21:44:24.290Z,97471.21
2019-03-02T21:46:26.208Z,97483.94
2019-03-02T21:48:27.810Z,97487.17
2019-03-02T21:50:29.416Z,97485.80
2019-03-02T21:52:31.049Z,97490.34
2019-03-02T21:54:32.645Z,97486.13
2019-03-02T21:56:34.238Z,97481.93
2019-03-02T21:58:35.838Z,97485.31
2019-03-02T22:00:37.497Z,97483.67
2019-03-02T22:02:39.114Z,97479.80
2019-03-02T22:04:40.747Z,97412.80
2019-03-02T22:06:42.359Z,97473.11
2019-03-02T22:08:44.136Z,97471.29
2019-03-02T22:10:45.728Z,97464.66
2019-03-02T22:12:47.368Z,97468.13
2019-03-02T22:14:48.966Z,97468.80
2019-03-02T22:16:51.510Z,97465.19
2019-03-02T22:18:53.124Z,97462.53
2019-03-02T22:20:54.833Z,97462.55
2019-03-02T22:22:56.485Z,97455.77
2019-03-02T22:24:58.847Z,97457.00
2019-03-02T22:27:00.493Z,97456.14
2019-03-02T22:29:02.104Z,97454.22
2019-03-02T22:31:03.720Z,97457.22
2019-03-02T22:33:05.337Z,97454.80
2019-03-02T22:35:06.947Z,97454.59
2019-03-02T22:37:08.582Z,97449.61
2019-03-02T22:39:10.230Z,97452.39
2019-03-02T22:41:11.838Z,97452.27
2019-03-02T22:43:13.437Z,97442.54
2019-03-02T22:45:15.073Z,97446.28
2019-03-02T22:47:16.699Z,97447.59
2019-03-02T22:49:18.298Z,97451.53
2019-03-02T22:51:19.904Z,97445.42
2019-03-02T22:53:21.556Z,97451.09
2019-03-02T22:55:23.154Z,97449.39
2019-03-02T22:57:24.767Z,97440.65
2019-03-02T22:59:26.420Z,97439.07
2019-03-02T23:01:28.022Z,97430.66
2019-03-02T23:03:29.633Z,97432.41
2019-03-02T23:05:31.284Z,97423.45
2019-03-02T23:07:32.937Z,97426.28
2019-03-02T23:09:34.534Z,97422.34
2019-03-02T23:11:36.133Z,97416.16
2019-03-02T23:13:37.791Z,97420.47
2019-03-02T23:15:40.020Z,97429.64
2019-03-02T23:17:41.632Z,97427.76
2019-03-02T23:19:43.251Z,97423.63
2019-03-02T23:21:44.873Z,97417.55
2019-03-02T23:23:46.477Z,97410.63
2019-03-02T23:25:48.120Z,97394.91
2019-03-02T23:27:49.759Z,97396.47
2019-03-02T23:29:52.088Z,97392.63
2019-03-02T23:31:53.772Z,97384.98
2019-03-02T23:33:55.373Z,97383.99
2019-03-02T23:35:56.984Z,97386.01
2019-03-02T23:37:58.712Z,97373.45
2019-03-02T23:40:00.305Z,97380.53
2019-03-02T23:42:01.916Z,97380.41
2019-03-02T23:44:03.548Z,97367.14
2019-03-02T23:46:05.139Z,97378.28
2019-03-02T23:48:06.729Z,97370.31
2019-03-02T23:50:08.325Z,97370.77
2019-03-02T23:52:09.949Z,97369.59
2019-03-02T23:54:11.557Z,97374.25
2019-03-02T23:56:13.172Z,97372.09
2019-03-02T23:58:14.803Z,97374.03
